createdAt,value
2018-10-17T00:01:18.382Z,18.97
2018-10-17T00:03:47.057Z,12.40
2018-10-17T00:06:15.704Z,12.77
2018-10-17T00:08:44.377Z,13.70
2018-10-17T00:11:13.143Z,11.90
2018-10-17T00:13:41.921Z,12.63
2018-10-17T00:16:10.658Z,14.33
2018-10-17T00:18:39.336Z,14.43
2018-10-17T00:21:07.932Z,14.17
2018-10-17T00:23:36.631Z,12.53
2018-10-17T00:26:05.654Z,12.73
2018-10-17T00:28:34.922Z,13.07
2018-10-17T00:31:04.819Z,13.20
2018-10-17T00:33:33.438Z,12.77
2018-10-17T00:36:02.309Z,13.63
2018-10-17T00:38:31.016Z,13.50
2018-10-17T00:40:59.705Z,12.70
2018-10-17T00:43:28.445Z,13.20
2018-10-17T00:45:57.109Z,14.20
2018-10-17T00:48:26.804Z,14.10
2018-10-17T00:50:55.490Z,12.70
2018-10-17T00:53:24.164Z,12.73
2018-10-17T00:55:52.901Z,12.30
2018-10-17T00:58:21.672Z,13.30
2018-10-17T01:00:50.360Z,13.17
2018-10-17T01:03:19.107Z,16.13
2018-10-17T01:05:48.768Z,15.53
2018-10-17T01:08:17.536Z,13.60
2018-10-17T01:10:46.248Z,18.77
2018-10-17T01:13:15.062Z,13.57
2018-10-17T01:15:44.029Z,12.77
2018-10-17T01:18:12.669Z,13.23
2018-10-17T01:20:41.246Z,13.57
2018-10-17T01:23:09.946Z,14.30
2018-10-17T01:25:38.442Z,12.63
2018-10-17T01:28:07.060Z,15.80
2018-10-17T01:30:35.618Z,14.10
2018-10-17T01:33:04.419Z,14.60
2018-10-17T01:35:34.061Z,14.80
2018-10-17T01:38:02.752Z,12.77
2018-10-17T01:40:31.455Z,15.07
2018-10-17T01:43:00.200Z,14.23
2018-10-17T01:45:28.830Z,23.43
2018-10-17T01:47:57.599Z,13.57
2018-10-17T01:50:26.316Z,13.23
2018-10-17T01:52:54.964Z,13.17
2018-10-17T01:55:23.632Z,13.80
2018-10-17T01:57:52.319Z,12.50
2018-10-17T02:00:20.991Z,12.90
2018-10-17T02:02:49.581Z,13.93
2018-10-17T02:05:18.322Z,15.03
2018-10-17T02:07:46.829Z,13.43
2018-10-17T02:10:15.609Z,12.57
2018-10-17T02:12:46.209Z,12.43
2018-10-17T02:15:14.982Z,13.33
2018-10-17T02:17:43.609Z,13.80
2018-10-17T02:20:12.203Z,12.77
2018-10-17T02:22:40.854Z,13.13
2018-10-17T02:25:10.592Z,11.27
2018-10-17T02:27:39.164Z,11.97
2018-10-17T02:30:07.950Z,11.77
2018-10-17T02:32:36.573Z,11.53
2018-10-17T02:35:11.140Z,11.90
2018-10-17T02:37:39.727Z,13.53
2018-10-17T02:40:08.395Z,13.13
2018-10-17T02:42:37.998Z,13.83
2018-10-17T02:45:08.125Z,16.90
2018-10-17T02:47:36.937Z,17.10
2018-10-17T02:50:08.966Z,17.50
2018-10-17T02:52:39.297Z,14.13
2018-10-17T02:55:08.494Z,13.20
2018-10-17T02:57:37.805Z,13.90
2018-10-17T03:00:07.870Z,13.90
2018-10-17T03:02:36.635Z,15.50
2018-10-17T03:05:05.712Z,14.93
2018-10-17T03:07:34.541Z,15.60
2018-10-17T03:10:03.243Z,14.80
2018-10-17T03:12:32.113Z,15.10
2018-10-17T03:15:00.769Z,15.30
2018-10-17T03:17:29.390Z,15.13
2018-10-17T03:19:58.061Z,13.53
2018-10-17T03:22:26.620Z,16.77
2018-10-17T03:24:55.227Z,13.70
2018-10-17T03:27:23.805Z,13.03
2018-10-17T03:29:52.415Z,15.43
2018-10-17T03:32:21.038Z,13.57
2018-10-17T03:34:49.640Z,12.77
2018-10-17T03:37:19.366Z,14.20
2018-10-17T03:39:47.969Z,14.67
2018-10-17T03:42:16.569Z,15.10
2018-10-17T03:44:45.152Z,14.60
2018-10-17T03:47:13.914Z,14.10
2018-10-17T03:49:42.591Z,13.13
2018-10-17T03:52:11.189Z,13.10
2018-10-17T03:54:39.946Z,14.53
2018-10-17T03:57:08.724Z,17.40
2018-10-17T03:59:37.489Z,15.80
2018-10-17T04:02:06.213Z,13.77
2018-10-17T04:04:35.581Z,12.63
2018-10-17T04:07:04.441Z,13.40
2018-10-17T04:09:32.988Z,15.70
2018-10-17T04:12:02.149Z,16.33
2018-10-17T04:14:30.797Z,13.83
2018-10-17T04:17:00.262Z,16.90
2018-10-17T04:19:29.038Z,15.57
2018-10-17T04:21:57.897Z,14.80
2018-10-17T04:24:26.635Z,12.80
2018-10-17T04:26:55.274Z,14.73
2018-10-17T04:29:24.259Z,13.97
2018-10-17T04:31:53.111Z,13.80
2018-10-17T04:34:21.856Z,13.17
2018-10-17T04:36:50.690Z,13.13
2018-10-17T04:39:19.314Z,18.90
2018-10-17T04:41:47.913Z,13.93
2018-10-17T04:44:16.522Z,14.33
2018-10-17T04:46:45.116Z,14.83
2018-10-17T04:49:13.745Z,14.87
2018-10-17T04:51:42.377Z,14.83
2018-10-17T04:54:11.076Z,13.47
2018-10-17T04:56:39.736Z,13.80
2018-10-17T04:59:08.390Z,16.13
2018-10-17T05:01:36.953Z,13.77
2018-10-17T05:04:06.360Z,13.10
2018-10-17T05:06:35.210Z,13.67
2018-10-17T05:09:04.551Z,15.30
2018-10-17T05:11:33.227Z,15.57
2018-10-17T05:14:02.022Z,17.63
2018-10-17T05:16:30.696Z,16.03
2018-10-17T05:18:59.532Z,18.17
2018-10-17T05:21:29.159Z,14.30
2018-10-17T05:23:57.924Z,14.50
2018-10-17T05:26:26.630Z,13.43
2018-10-17T05:28:55.320Z,15.13
2018-10-17T05:31:23.828Z,13.57
2018-10-17T05:33:52.437Z,15.60
2018-10-17T05:36:21.756Z,16.33
2018-10-17T05:38:51.130Z,14.37
2018-10-17T05:41:19.971Z,14.90
2018-10-17T05:43:48.565Z,14.40
2018-10-17T05:46:17.154Z,18.43
2018-10-17T05:48:45.795Z,14.20
2018-10-17T05:51:14.424Z,16.20
2018-10-17T05:53:43.190Z,14.60
2018-10-17T05:56:11.891Z,18.93
2018-10-17T05:58:40.580Z,14.43
2018-10-17T06:01:09.339Z,16.70
2018-10-17T06:03:38.051Z,15.27
2018-10-17T06:06:06.649Z,14.17
2018-10-17T06:08:35.528Z,13.53
2018-10-17T06:11:04.206Z,12.20
2018-10-17T06:13:32.772Z,13.33
2018-10-17T06:16:01.377Z,13.27
2018-10-17T06:18:30.070Z,12.53
2018-10-17T06:20:58.729Z,15.93
2018-10-17T06:23:27.304Z,14.53
2018-10-17T06:25:55.960Z,19.77
2018-10-17T06:28:24.604Z,14.43
2018-10-17T06:30:53.215Z,13.50
2018-10-17T06:33:21.808Z,12.73
2018-10-17T06:35:50.641Z,14.00
2018-10-17T06:38:19.225Z,18.60
2018-10-17T06:40:47.923Z,17.50
2018-10-17T06:43:16.578Z,18.37
2018-10-17T06:45:45.197Z,18.13
2018-10-17T06:48:13.737Z,13.73
2018-10-17T06:50:42.943Z,13.47
2018-10-17T06:53:11.551Z,13.80
2018-10-17T06:55:40.316Z,14.83
2018-10-17T06:58:08.909Z,19.93
2018-10-17T07:00:37.711Z,13.50
2018-10-17T07:03:07.154Z,12.80
2018-10-17T07:05:35.742Z,14.23
2018-10-17T07:08:05.451Z,15.83
2018-10-17T07:10:34.029Z,14.50
2018-10-17T07:13:02.990Z,16.03
2018-10-17T07:15:31.729Z,14.47
2018-10-17T07:18:00.118Z,14.60
2018-10-17T07:20:28.829Z,15.03
2018-10-17T07:22:57.495Z,14.97
2018-10-17T07:25:26.080Z,15.30
2018-10-17T07:27:54.630Z,13.63
2018-10-17T07:30:23.215Z,12.80
2018-10-17T07:32:51.840Z,11.47
2018-10-17T07:35:20.416Z,12.93
2018-10-17T07:37:48.969Z,14.20
2018-10-17T07:40:17.504Z,13.90
2018-10-17T07:42:46.095Z,14.70
2018-10-17T07:45:14.684Z,19.77
2018-10-17T07:47:43.831Z,18.23
2018-10-17T07:50:12.575Z,17.53
2018-10-17T07:52:41.142Z,20.17
2018-10-17T07:55:11.660Z,18.40
2018-10-17T07:57:40.268Z,21.30
2018-10-17T08:00:11.236Z,17.20
2018-10-17T08:02:40.096Z,15.13
2018-10-17T08:05:09.564Z,24.50
2018-10-17T08:07:38.848Z,16.97
2018-10-17T08:10:08.878Z,34.33
2018-10-17T08:12:37.539Z,13.50
2018-10-17T08:15:07.644Z,16.40
2018-10-17T08:17:36.380Z,30.23
2018-10-17T08:20:06.234Z,15.23
2018-10-17T08:22:34.885Z,31.23
2018-10-17T08:25:03.512Z,14.33
2018-10-17T08:27:33.231Z,20.27
2018-10-17T08:30:02.386Z,16.23
2018-10-17T08:32:31.140Z,18.77
2018-10-17T08:34:59.842Z,15.30
2018-10-17T08:37:28.864Z,16.10
2018-10-17T08:39:57.041Z,14.70
2018-10-17T08:42:26.221Z,14.73
2018-10-17T08:44:54.883Z,14.23
2018-10-17T08:47:23.475Z,12.60
2018-10-17T08:49:52.210Z,13.93
2018-10-17T08:52:21.798Z,11.00
2018-10-17T08:54:50.445Z,14.83
2018-10-17T08:57:19.080Z,15.87
2018-10-17T08:59:47.774Z,11.93
2018-10-17T09:02:16.548Z,14.93
2018-10-17T09:04:45.197Z,14.57
2018-10-17T09:07:13.809Z,13.83
2018-10-17T09:09:42.679Z,12.73
2018-10-17T09:12:12.191Z,11.50
2018-10-17T09:14:40.870Z,12.17
2018-10-17T09:17:09.597Z,12.77
2018-10-17T09:19:38.730Z,10.27
2018-10-17T09:22:07.594Z,11.97
2018-10-17T09:24:36.714Z,13.73
2018-10-17T09:27:05.361Z,18.70
2018-10-17T09:29:34.164Z,12.73
2018-10-17T09:32:02.844Z,14.77
2018-10-17T09:34:31.539Z,13.30
2018-10-17T09:37:00.094Z,12.07
2018-10-17T09:39:28.825Z,23.57
2018-10-17T09:41:57.488Z,15.13
2018-10-17T09:44:26.261Z,13.00
2018-10-17T09:46:55.131Z,16.10
2018-10-17T09:49:23.754Z,14.20
2018-10-17T09:51:52.426Z,18.40
2018-10-17T09:54:21.127Z,11.50
2018-10-17T09:56:49.990Z,9.90
2018-10-17T09:59:18.642Z,8.17
2018-10-17T10:01:52.424Z,8.00
2018-10-17T10:04:21.399Z,12.83
2018-10-17T10:06:49.938Z,8.20
2018-10-17T10:09:18.662Z,10.10
2018-10-17T10:11:47.817Z,11.90
2018-10-17T10:14:16.556Z,20.13
2018-10-17T10:16:45.129Z,10.07
2018-10-17T10:19:13.759Z,11.87
2018-10-17T10:21:42.341Z,16.33
2018-10-17T10:24:11.081Z,14.27
2018-10-17T10:26:39.626Z,14.40
2018-10-17T10:29:08.392Z,16.67
2018-10-17T10:31:36.976Z,15.27
2018-10-17T10:34:05.948Z,15.03
2018-10-17T10:36:34.537Z,13.30
2018-10-17T10:39:03.649Z,11.80
2018-10-17T10:41:32.283Z,16.63
2018-10-17T10:44:01.741Z,11.07
2018-10-17T10:46:30.397Z,15.10
2018-10-17T10:48:59.576Z,17.00
2018-10-17T10:51:28.436Z,10.97
2018-10-17T10:53:57.020Z,11.17
2018-10-17T10:56:25.757Z,12.17
2018-10-17T10:58:55.547Z,10.90
2018-10-17T11:01:24.128Z,11.13
2018-10-17T11:03:53.045Z,10.50
2018-10-17T11:06:21.716Z,10.63
2018-10-17T11:08:50.402Z,13.53
2018-10-17T11:11:20.084Z,9.63
2018-10-17T11:13:48.855Z,8.00
2018-10-17T11:16:17.611Z,10.20
2018-10-17T11:18:46.304Z,13.50
2018-10-17T11:21:14.995Z,12.40
2018-10-17T11:23:43.696Z,8.50
2018-10-17T11:26:12.318Z,12.93
2018-10-17T11:28:40.944Z,9.60
2018-10-17T11:31:09.531Z,9.93
2018-10-17T11:33:38.121Z,10.37
2018-10-17T11:36:07.807Z,11.47
2018-10-17T11:38:36.425Z,6.93
2018-10-17T11:41:05.275Z,11.37
2018-10-17T11:43:33.900Z,8.60
2018-10-17T11:46:02.463Z,7.57
2018-10-17T11:48:31.268Z,11.40
2018-10-17T11:50:59.899Z,12.47
2018-10-17T11:53:28.505Z,9.13
2018-10-17T11:55:57.250Z,8.73
2018-10-17T11:58:25.820Z,11.57
2018-10-17T12:00:54.445Z,10.13
2018-10-17T12:03:23.156Z,8.03
2018-10-17T12:05:51.774Z,7.73
2018-10-17T12:08:20.323Z,10.23
2018-10-17T12:10:48.913Z,12.77
2018-10-17T12:13:18.045Z,7.40
2018-10-17T12:15:46.702Z,7.10
2018-10-17T12:18:15.555Z,11.03
2018-10-17T12:20:44.098Z,8.60
2018-10-17T12:23:13.808Z,7.70
2018-10-17T12:25:42.523Z,9.80
2018-10-17T12:28:12.021Z,9.67
2018-10-17T12:30:40.449Z,8.33
2018-10-17T12:33:09.115Z,9.20
2018-10-17T12:35:37.669Z,10.93
2018-10-17T12:38:06.440Z,10.13
2018-10-17T12:40:35.214Z,9.40
2018-10-17T12:43:04.003Z,11.20
2018-10-17T12:45:32.624Z,8.80
2018-10-17T12:48:01.281Z,8.60
2018-10-17T12:50:29.871Z,19.23
2018-10-17T12:52:58.664Z,12.07
2018-10-17T12:55:28.575Z,30.87
2018-10-17T12:57:57.370Z,10.97
2018-10-17T13:00:26.015Z,7.13
2018-10-17T13:02:54.708Z,12.50
2018-10-17T13:05:23.358Z,12.27
2018-10-17T13:07:52.005Z,8.30
2018-10-17T13:10:20.770Z,9.47
2018-10-17T13:12:49.410Z,9.50
2018-10-17T13:15:19.175Z,8.40
2018-10-17T13:17:47.733Z,14.80
2018-10-17T13:20:16.303Z,12.00
2018-10-17T13:22:44.869Z,11.00
2018-10-17T13:25:13.558Z,10.83
2018-10-17T13:27:42.825Z,14.50
2018-10-17T13:30:11.494Z,9.17
2018-10-17T13:32:40.118Z,12.37
2018-10-17T13:35:08.879Z,6.90
2018-10-17T13:37:37.492Z,11.20
2018-10-17T13:40:06.285Z,10.00
2018-10-17T13:42:35.096Z,8.67
2018-10-17T13:45:03.812Z,13.93
2018-10-17T13:47:32.521Z,10.47
2018-10-17T13:50:01.169Z,10.33
2018-10-17T13:52:29.951Z,9.93
2018-10-17T13:54:58.642Z,13.30
2018-10-17T13:57:27.410Z,9.73
2018-10-17T13:59:56.049Z,10.67
2018-10-17T14:02:25.029Z,11.20
2018-10-17T14:04:53.951Z,11.93
2018-10-17T14:07:22.705Z,9.07
2018-10-17T14:09:51.331Z,9.07
2018-10-17T14:12:20.199Z,9.50
2018-10-17T14:14:48.758Z,8.47
2018-10-17T14:17:17.480Z,10.23
2018-10-17T14:19:46.239Z,8.47
2018-10-17T14:22:14.791Z,14.20
2018-10-17T14:24:43.367Z,11.90
2018-10-17T14:27:11.895Z,11.97
2018-10-17T14:29:40.598Z,7.17
2018-10-17T14:32:09.144Z,9.30
2018-10-17T14:34:37.778Z,15.00
2018-10-17T14:37:07.455Z,9.13
2018-10-17T14:39:36.125Z,16.27
2018-10-17T14:42:05.375Z,19.83
2018-10-17T14:44:34.057Z,12.57
2018-10-17T14:47:02.766Z,13.50
2018-10-17T14:49:31.499Z,15.70
2018-10-17T14:52:00.197Z,9.70
2018-10-17T14:54:29.249Z,12.13
2018-10-17T14:56:58.502Z,9.97
2018-10-17T14:59:27.784Z,13.73
2018-10-17T15:01:56.462Z,12.80
2018-10-17T15:04:25.053Z,14.67
2018-10-17T15:06:53.690Z,12.43
2018-10-17T15:09:22.225Z,16.40
2018-10-17T15:11:51.191Z,14.80
2018-10-17T15:14:20.163Z,9.27
2018-10-17T15:16:48.894Z,11.60
2018-10-17T15:19:18.132Z,13.07
2018-10-17T15:21:47.002Z,11.43
2018-10-17T15:24:15.626Z,9.13
2018-10-17T15:26:44.379Z,9.93
2018-10-17T15:29:13.197Z,12.10
2018-10-17T15:31:42.497Z,12.83
2018-10-17T15:34:11.603Z,12.47
2018-10-17T15:36:40.430Z,12.20
2018-10-17T15:39:10.426Z,10.83
2018-10-17T15:41:39.034Z,12.53
2018-10-17T15:44:08.292Z,12.33
2018-10-17T15:46:36.898Z,15.40
2018-10-17T15:49:06.280Z,11.67
2018-10-17T15:51:35.151Z,10.67
2018-10-17T15:54:04.037Z,12.27
2018-10-17T15:56:33.499Z,11.60
2018-10-17T15:59:02.188Z,16.00
2018-10-17T16:01:31.661Z,12.90
2018-10-17T16:04:00.335Z,12.83
2018-10-17T16:06:29.136Z,15.93
2018-10-17T16:08:58.305Z,13.00
2018-10-17T16:11:26.980Z,13.90
2018-10-17T16:14:58.856Z,15.67
2018-10-17T16:17:28.449Z,15.23
2018-10-17T16:19:57.115Z,24.27
2018-10-17T16:22:26.822Z,19.67
2018-10-17T16:24:55.486Z,18.77
2018-10-17T16:27:25.162Z,17.00
2018-10-17T16:29:54.257Z,23.97
2018-10-17T16:32:22.990Z,21.27
2018-10-17T16:34:51.721Z,32.23
2018-10-17T16:37:20.540Z,20.00
2018-10-17T16:39:49.282Z,24.10
2018-10-17T16:42:17.983Z,21.70
2018-10-17T16:44:46.580Z,19.47
2018-10-17T16:47:15.521Z,22.00
2018-10-17T16:49:45.243Z,20.73
2018-10-17T16:52:13.872Z,24.77
2018-10-17T16:54:42.716Z,20.40
2018-10-17T16:57:11.404Z,20.80
2018-10-17T16:59:40.528Z,16.90
2018-10-17T17:02:09.641Z,21.80
2018-10-17T17:04:38.382Z,20.30
2018-10-17T17:07:08.235Z,21.37
2018-10-17T17:09:36.925Z,19.07
2018-10-17T17:12:06.746Z,21.27
2018-10-17T17:14:35.370Z,21.50
2018-10-17T17:17:04.226Z,24.10
2018-10-17T17:19:33.140Z,21.83
2018-10-17T17:22:01.912Z,22.40
2018-10-17T17:24:31.557Z,36.17
2018-10-17T17:27:00.454Z,30.67
2018-10-17T17:29:29.254Z,19.83
2018-10-17T17:31:58.052Z,25.03
2018-10-17T17:34:26.817Z,22.47
2018-10-17T17:36:55.537Z,21.60
2018-10-17T17:39:24.228Z,26.03
2018-10-17T17:41:53.065Z,24.70
2018-10-17T17:44:21.851Z,20.97
2018-10-17T17:46:50.535Z,25.07
2018-10-17T17:49:19.165Z,23.30
2018-10-17T17:51:47.845Z,24.23
2018-10-17T17:54:16.632Z,29.70
2018-10-17T17:56:45.429Z,27.33
2018-10-17T18:06:01.312Z,25.70
2018-10-17T18:08:29.999Z,22.77
2018-10-17T18:11:19.050Z,25.80
2018-10-17T18:13:48.175Z,25.83
2018-10-17T18:16:16.942Z,21.50
2018-10-17T18:18:46.007Z,23.43
2018-10-17T18:21:14.935Z,24.27
2018-10-17T18:23:43.957Z,23.77
2018-10-17T18:26:13.126Z,26.80
2018-10-17T18:28:42.464Z,33.10
2018-10-17T18:31:13.352Z,29.27
2018-10-17T18:33:42.007Z,38.13
2018-10-17T18:36:10.869Z,30.63
2018-10-17T18:38:39.608Z,34.23
2018-10-17T18:41:08.451Z,34.73
2018-10-17T18:43:37.202Z,31.63
2018-10-17T18:46:06.211Z,35.20
2018-10-17T18:48:34.791Z,35.57
2018-10-17T18:51:04.124Z,38.63
2018-10-17T18:53:32.769Z,38.40
2018-10-17T18:56:01.510Z,36.73
2018-10-17T18:58:30.106Z,38.30
2018-10-17T19:00:58.943Z,36.77
2018-10-17T19:03:27.597Z,36.80
2018-10-17T19:05:56.458Z,35.40
2018-10-17T19:08:25.164Z,34.70
2018-10-17T19:10:53.852Z,51.33
2018-10-17T19:13:22.525Z,42.30
2018-10-17T19:15:51.419Z,42.00
2018-10-17T19:18:20.035Z,46.90
2018-10-17T19:20:48.745Z,45.60
2018-10-17T19:23:17.409Z,51.30
2018-10-17T19:25:46.663Z,47.07
2018-10-17T19:28:15.271Z,49.90
2018-10-17T19:30:44.003Z,52.83
2018-10-17T19:33:13.036Z,49.57
2018-10-17T19:35:41.461Z,46.57
2018-10-17T19:38:10.513Z,53.13
2018-10-17T19:40:39.262Z,48.97
2018-10-17T19:43:08.549Z,52.83
2018-10-17T19:45:37.112Z,49.03
2018-10-17T19:48:05.886Z,54.17
2018-10-17T19:50:34.607Z,51.70
2018-10-17T19:53:03.285Z,61.43
2018-10-17T19:55:31.911Z,52.60
2018-10-17T19:58:00.554Z,56.13
2018-10-17T20:00:29.846Z,52.17
2018-10-17T20:02:58.610Z,51.73
2018-10-17T20:05:27.270Z,51.67
2018-10-17T20:07:56.705Z,54.37
2018-10-17T20:10:25.347Z,50.83
2018-10-17T20:12:54.572Z,47.37
2018-10-17T20:15:24.496Z,47.27
2018-10-17T20:17:53.209Z,48.80
2018-10-17T20:20:21.855Z,47.40
2018-10-17T20:22:50.600Z,51.33
2018-10-17T20:25:19.289Z,51.10
2018-10-17T20:27:48.011Z,43.87
2018-10-17T20:30:16.705Z,43.60
2018-10-17T20:32:45.568Z,46.33
2018-10-17T20:35:14.271Z,51.00
2018-10-17T20:37:42.971Z,50.63
2018-10-17T20:40:11.643Z,53.80
2018-10-17T20:42:40.330Z,47.10
2018-10-17T20:45:09.057Z,48.17
2018-10-17T20:47:37.698Z,52.63
2018-10-17T20:50:07.113Z,52.60
2018-10-17T20:52:35.708Z,44.90
2018-10-17T20:55:04.664Z,46.13
2018-10-17T20:57:33.479Z,58.27
2018-10-17T21:00:02.810Z,51.17
2018-10-17T21:02:31.485Z,48.30
2018-10-17T21:05:00.146Z,48.10
2018-10-17T21:07:28.899Z,50.57
2018-10-17T21:09:57.692Z,45.77
2018-10-17T21:12:26.626Z,50.07
2018-10-17T21:14:55.352Z,50.47
2018-10-17T21:17:25.108Z,58.20
2018-10-17T21:19:53.819Z,56.80
2018-10-17T21:22:22.520Z,56.10
2018-10-17T21:24:51.240Z,53.23
2018-10-17T21:27:20.204Z,50.30
2018-10-17T21:29:48.830Z,42.87
2018-10-17T21:32:17.618Z,44.73
2018-10-17T21:34:46.570Z,47.63
2018-10-17T21:37:15.285Z,45.23
2018-10-17T21:39:44.000Z,41.33
2018-10-17T21:42:12.753Z,44.60
2018-10-17T21:44:41.466Z,39.77
2018-10-17T21:47:10.221Z,43.93
2018-10-17T21:49:38.842Z,45.13
2018-10-17T21:52:08.573Z,45.83
2018-10-17T21:54:37.195Z,44.83
2018-10-17T21:57:06.294Z,46.77
2018-10-17T21:59:34.908Z,49.63
2018-10-17T22:02:03.693Z,58.63
2018-10-17T22:04:32.346Z,57.60
2018-10-17T22:07:00.990Z,51.07
2018-10-17T22:09:29.862Z,49.87
2018-10-17T22:11:58.555Z,54.87
2018-10-17T22:14:27.298Z,46.10
2018-10-17T22:17:01.048Z,54.00
2018-10-17T22:19:29.705Z,55.30
2018-10-17T22:21:58.347Z,51.77
2018-10-17T22:24:27.064Z,54.90
2018-10-17T22:26:56.030Z,49.47
2018-10-17T22:29:24.931Z,49.70
2018-10-17T22:31:54.123Z,52.30
2018-10-17T22:34:23.034Z,47.40
2018-10-17T22:36:51.772Z,53.73
2018-10-17T22:39:20.497Z,47.13
2018-10-17T22:41:49.084Z,51.83
2018-10-17T22:44:17.854Z,49.70
2018-10-17T22:46:46.503Z,50.43
2018-10-17T22:49:15.112Z,49.53
2018-10-17T22:51:43.770Z,52.60
2018-10-17T22:54:12.363Z,48.43
2018-10-17T22:56:40.930Z,52.00
2018-10-17T22:59:09.550Z,52.43
2018-10-17T23:01:38.579Z,50.40
2018-10-17T23:04:08.014Z,51.50
2018-10-17T23:06:36.697Z,54.00
2018-10-17T23:09:10.832Z,56.37
2018-10-17T23:11:43.116Z,55.33
2018-10-17T23:14:12.008Z,49.33
2018-10-17T23:16:41.711Z,49.80
2018-10-17T23:19:11.178Z,52.47
2018-10-17T23:21:41.265Z,54.57
2018-10-17T23:24:09.971Z,51.20
2018-10-17T23:26:38.612Z,52.47
2018-10-17T23:29:07.767Z,52.00
2018-10-17T23:31:36.519Z,49.83
2018-10-17T23:34:05.201Z,51.23
2018-10-17T23:36:33.784Z,58.43
2018-10-17T23:39:02.430Z,57.33
2018-10-17T23:41:31.019Z,52.23
2018-10-17T23:43:59.675Z,51.70
2018-10-17T23:46:28.205Z,52.27
2018-10-17T23:48:56.803Z,50.40
2018-10-17T23:51:25.372Z,53.93
2018-10-17T23:53:53.932Z,49.07
2018-10-17T23:56:22.589Z,56.30
2018-10-17T23:58:51.278Z,52.03
